sensor_id;sensor_type;location;lat;lon;timestamp;P1;durP1;ratioP1;P2;durP2;ratioP2
77160;SDS011;66135;0.000;0.000;2023-02-15T00:00:05;7.28;;;4.82;;
77160;SDS011;66135;0.000;0.000;2023-02-15T00:02:33;7.72;;;4.93;;
77160;SDS011;66135;0.000;0.000;2023-02-15T00:04:58;6.13;;;4.88;;
77160;SDS011;66135;0.000;0.000;2023-02-15T00:07:24;7.15;;;4.38;;
77160;SDS011;66135;0.000;0.000;2023-02-15T00:09:49;6.32;;;5.22;;
77160;SDS011;66135;0.000;0.000;2023-02-15T00:12:15;6.88;;;5.07;;
77160;SDS011;66135;0.000;0.000;2023-02-15T00:17:07;5.95;;;4.70;;
77160;SDS011;66135;0.000;0.000;2023-02-15T00:19:32;8.10;;;5.38;;
77160;SDS011;66135;0.000;0.000;2023-02-15T00:21:58;8.35;;;5.35;;
77160;SDS011;66135;0.000;0.000;2023-02-15T00:24:23;6.80;;;5.20;;
77160;SDS011;66135;0.000;0.000;2023-02-15T00:26:49;7.38;;;5.82;;
77160;SDS011;66135;0.000;0.000;2023-02-15T00:29:15;7.25;;;5.50;;
77160;SDS011;66135;0.000;0.000;2023-02-15T00:31:41;6.68;;;5.40;;
77160;SDS011;66135;0.000;0.000;2023-02-15T00:34:11;6.18;;;4.65;;
77160;SDS011;66135;0.000;0.000;2023-02-15T00:36:39;6.38;;;4.82;;
77160;SDS011;66135;0.000;0.000;2023-02-15T00:41:33;6.45;;;4.97;;
77160;SDS011;66135;0.000;0.000;2023-02-15T00:43:59;6.72;;;4.80;;
77160;SDS011;66135;0.000;0.000;2023-02-15T00:46:24;6.50;;;4.88;;
77160;SDS011;66135;0.000;0.000;2023-02-15T00:48:50;7.72;;;5.45;;
77160;SDS011;66135;0.000;0.000;2023-02-15T00:53:42;6.90;;;5.00;;
77160;SDS011;66135;0.000;0.000;2023-02-15T00:58:32;6.30;;;5.20;;
77160;SDS011;66135;0.000;0.000;2023-02-15T01:03:30;6.55;;;4.53;;
77160;SDS011;66135;0.000;0.000;2023-02-15T01:08:21;6.03;;;4.67;;
77160;SDS011;66135;0.000;0.000;2023-02-15T01:10:47;6.82;;;4.60;;
77160;SDS011;66135;0.000;0.000;2023-02-15T01:13:13;7.72;;;5.00;;
77160;SDS011;66135;0.000;0.000;2023-02-15T01:15:40;6.15;;;5.25;;
77160;SDS011;66135;0.000;0.000;2023-02-15T01:18:05;7.13;;;4.80;;
77160;SDS011;66135;0.000;0.000;2023-02-15T01:20:33;6.15;;;4.82;;
77160;SDS011;66135;0.000;0.000;2023-02-15T01:23:01;7.20;;;5.00;;
77160;SDS011;66135;0.000;0.000;2023-02-15T01:25:27;7.65;;;5.78;;
77160;SDS011;66135;0.000;0.000;2023-02-15T01:27:53;6.55;;;5.10;;
77160;SDS011;66135;0.000;0.000;2023-02-15T01:30:18;6.88;;;4.88;;
77160;SDS011;66135;0.000;0.000;2023-02-15T01:32:44;6.50;;;5.05;;
77160;SDS011;66135;0.000;0.000;2023-02-15T01:37:34;6.35;;;4.97;;
77160;SDS011;66135;0.000;0.000;2023-02-15T01:40:02;7.43;;;5.00;;
77160;SDS011;66135;0.000;0.000;2023-02-15T01:42:29;6.35;;;4.38;;
77160;SDS011;66135;0.000;0.000;2023-02-15T01:50:45;7.15;;;5.93;;
77160;SDS011;66135;0.000;0.000;2023-02-15T01:53:08;7.03;;;5.32;;
77160;SDS011;66135;0.000;0.000;2023-02-15T01:55:49;5.93;;;4.65;;
77160;SDS011;66135;0.000;0.000;2023-02-15T01:58:16;6.53;;;5.25;;
77160;SDS011;66135;0.000;0.000;2023-02-15T02:00:43;6.15;;;5.00;;
77160;SDS011;66135;0.000;0.000;2023-02-15T02:03:09;7.10;;;4.57;;
77160;SDS011;66135;0.000;0.000;2023-02-15T02:05:35;7.30;;;4.95;;
77160;SDS011;66135;0.000;0.000;2023-02-15T02:08:01;7.18;;;4.93;;
77160;SDS011;66135;0.000;0.000;2023-02-15T02:12:54;6.35;;;4.78;;
77160;SDS011;66135;0.000;0.000;2023-02-15T02:15:29;6.18;;;4.93;;
77160;SDS011;66135;0.000;0.000;2023-02-15T02:18:31;6.18;;;4.95;;
77160;SDS011;66135;0.000;0.000;2023-02-15T02:35:15;6.20;;;4.47;;
77160;SDS011;66135;0.000;0.000;2023-02-15T02:40:38;5.50;;;4.38;;
77160;SDS011;66135;0.000;0.000;2023-02-15T02:48:43;6.05;;;4.25;;
77160;SDS011;66135;0.000;0.000;2023-02-15T02:51:09;5.88;;;4.47;;
77160;SDS011;66135;0.000;0.000;2023-02-15T02:53:34;7.35;;;4.72;;
77160;SDS011;66135;0.000;0.000;2023-02-15T02:56:06;7.10;;;5.38;;
77160;SDS011;66135;0.000;0.000;2023-02-15T02:58:47;6.38;;;4.43;;
77160;SDS011;66135;0.000;0.000;2023-02-15T03:03:51;6.10;;;4.22;;
77160;SDS011;66135;0.000;0.000;2023-02-15T03:06:24;6.15;;;3.95;;
77160;SDS011;66135;0.000;0.000;2023-02-15T03:08:55;5.88;;;4.28;;
77160;SDS011;66135;0.000;0.000;2023-02-15T03:11:26;5.78;;;3.83;;
77160;SDS011;66135;0.000;0.000;2023-02-15T03:13:52;6.05;;;4.82;;
77160;SDS011;66135;0.000;0.000;2023-02-15T03:16:17;5.82;;;4.22;;
77160;SDS011;66135;0.000;0.000;2023-02-15T03:18:53;4.93;;;3.78;;
77160;SDS011;66135;0.000;0.000;2023-02-15T03:21:34;5.78;;;4.20;;
77160;SDS011;66135;0.000;0.000;2023-02-15T03:24:22;6.07;;;4.15;;
77160;SDS011;66135;0.000;0.000;2023-02-15T03:26:54;5.30;;;4.13;;
77160;SDS011;66135;0.000;0.000;2023-02-15T03:29:22;6.30;;;3.85;;
77160;SDS011;66135;0.000;0.000;2023-02-15T03:31:51;5.53;;;3.85;;
77160;SDS011;66135;0.000;0.000;2023-02-15T03:34:24;5.88;;;4.22;;
77160;SDS011;66135;0.000;0.000;2023-02-15T03:36:52;5.35;;;3.92;;
77160;SDS011;66135;0.000;0.000;2023-02-15T03:39:23;5.50;;;3.90;;
77160;SDS011;66135;0.000;0.000;2023-02-15T03:42:36;5.82;;;4.05;;
77160;SDS011;66135;0.000;0.000;2023-02-15T03:44:58;6.03;;;3.72;;
77160;SDS011;66135;0.000;0.000;2023-02-15T03:47:27;5.25;;;4.47;;
77160;SDS011;66135;0.000;0.000;2023-02-15T03:50:07;5.70;;;3.65;;
77160;SDS011;66135;0.000;0.000;2023-02-15T03:52:56;5.75;;;4.03;;
77160;SDS011;66135;0.000;0.000;2023-02-15T03:55:24;5.60;;;4.13;;
77160;SDS011;66135;0.000;0.000;2023-02-15T03:57:50;6.35;;;3.70;;
77160;SDS011;66135;0.000;0.000;2023-02-15T04:00:35;5.20;;;3.70;;
77160;SDS011;66135;0.000;0.000;2023-02-15T04:05:59;5.85;;;4.03;;
77160;SDS011;66135;0.000;0.000;2023-02-15T04:08:26;5.20;;;3.83;;
77160;SDS011;66135;0.000;0.000;2023-02-15T04:11:11;5.53;;;3.75;;
77160;SDS011;66135;0.000;0.000;2023-02-15T04:13:36;5.53;;;4.72;;
77160;SDS011;66135;0.000;0.000;2023-02-15T04:16:02;5.63;;;4.18;;
77160;SDS011;66135;0.000;0.000;2023-02-15T04:18:28;5.90;;;4.10;;
77160;SDS011;66135;0.000;0.000;2023-02-15T04:21:13;5.68;;;4.00;;
77160;SDS011;66135;0.000;0.000;2023-02-15T04:23:57;5.95;;;4.47;;
77160;SDS011;66135;0.000;0.000;2023-02-15T04:26:41;5.53;;;4.05;;
77160;SDS011;66135;0.000;0.000;2023-02-15T04:29:06;5.95;;;3.80;;
77160;SDS011;66135;0.000;0.000;2023-02-15T04:31:32;5.25;;;4.10;;
77160;SDS011;66135;0.000;0.000;2023-02-15T04:33:57;4.72;;;3.28;;
77160;SDS011;66135;0.000;0.000;2023-02-15T04:36:23;6.00;;;4.15;;
77160;SDS011;66135;0.000;0.000;2023-02-15T04:38:48;5.40;;;3.22;;
77160;SDS011;66135;0.000;0.000;2023-02-15T04:41:13;5.75;;;3.88;;
77160;SDS011;66135;0.000;0.000;2023-02-15T04:43:39;4.63;;;3.63;;
77160;SDS011;66135;0.000;0.000;2023-02-15T04:46:04;5.60;;;3.53;;
77160;SDS011;66135;0.000;0.000;2023-02-15T04:48:29;5.47;;;3.70;;
77160;SDS011;66135;0.000;0.000;2023-02-15T04:50:55;4.75;;;3.65;;
77160;SDS011;66135;0.000;0.000;2023-02-15T04:53:20;5.28;;;4.30;;
77160;SDS011;66135;0.000;0.000;2023-02-15T04:55:46;4.10;;;3.40;;
77160;SDS011;66135;0.000;0.000;2023-02-15T04:58:11;5.97;;;3.83;;
77160;SDS011;66135;0.000;0.000;2023-02-15T05:00:37;5.32;;;3.40;;
77160;SDS011;66135;0.000;0.000;2023-02-15T05:03:02;5.95;;;4.10;;
77160;SDS011;66135;0.000;0.000;2023-02-15T05:05:28;4.70;;;3.35;;
77160;SDS011;66135;0.000;0.000;2023-02-15T05:07:53;5.93;;;3.55;;
77160;SDS011;66135;0.000;0.000;2023-02-15T05:10:19;6.15;;;3.75;;
77160;SDS011;66135;0.000;0.000;2023-02-15T05:12:45;5.68;;;4.03;;
77160;SDS011;66135;0.000;0.000;2023-02-15T05:15:10;4.85;;;3.53;;
77160;SDS011;66135;0.000;0.000;2023-02-15T05:17:36;5.22;;;3.67;;
77160;SDS011;66135;0.000;0.000;2023-02-15T05:20:01;4.85;;;3.35;;
77160;SDS011;66135;0.000;0.000;2023-02-15T05:22:27;4.72;;;3.65;;
77160;SDS011;66135;0.000;0.000;2023-02-15T05:24:52;4.82;;;3.58;;
77160;SDS011;66135;0.000;0.000;2023-02-15T05:27:36;4.45;;;3.00;;
77160;SDS011;66135;0.000;0.000;2023-02-15T05:30:20;5.20;;;3.53;;
77160;SDS011;66135;0.000;0.000;2023-02-15T05:32:46;5.35;;;3.75;;
77160;SDS011;66135;0.000;0.000;2023-02-15T05:35:12;4.60;;;3.80;;
77160;SDS011;66135;0.000;0.000;2023-02-15T05:37:39;5.38;;;4.07;;
77160;SDS011;66135;0.000;0.000;2023-02-15T05:40:05;5.57;;;3.35;;
77160;SDS011;66135;0.000;0.000;2023-02-15T05:44:56;6.03;;;3.93;;
77160;SDS011;66135;0.000;0.000;2023-02-15T05:47:21;4.60;;;3.95;;
77160;SDS011;66135;0.000;0.000;2023-02-15T05:49:47;6.07;;;3.90;;
77160;SDS011;66135;0.000;0.000;2023-02-15T05:52:12;6.93;;;4.10;;
77160;SDS011;66135;0.000;0.000;2023-02-15T05:54:37;4.72;;;3.28;;
77160;SDS011;66135;0.000;0.000;2023-02-15T05:57:03;4.93;;;3.92;;
77160;SDS011;66135;0.000;0.000;2023-02-15T05:59:28;4.60;;;3.53;;
77160;SDS011;66135;0.000;0.000;2023-02-15T06:01:53;4.03;;;3.03;;
77160;SDS011;66135;0.000;0.000;2023-02-15T06:04:19;5.82;;;4.50;;
77160;SDS011;66135;0.000;0.000;2023-02-15T06:06:44;6.53;;;4.30;;
77160;SDS011;66135;0.000;0.000;2023-02-15T06:09:10;5.63;;;4.15;;
77160;SDS011;66135;0.000;0.000;2023-02-15T06:11:37;7.05;;;4.40;;
77160;SDS011;66135;0.000;0.000;2023-02-15T06:14:02;4.75;;;3.30;;
77160;SDS011;66135;0.000;0.000;2023-02-15T06:16:28;6.25;;;4.25;;
77160;SDS011;66135;0.000;0.000;2023-02-15T06:18:53;5.47;;;3.60;;
77160;SDS011;66135;0.000;0.000;2023-02-15T06:21:19;5.97;;;3.55;;
77160;SDS011;66135;0.000;0.000;2023-02-15T06:23:44;4.90;;;3.17;;
77160;SDS011;66135;0.000;0.000;2023-02-15T06:26:09;6.35;;;3.35;;
77160;SDS011;66135;0.000;0.000;2023-02-15T06:28:35;9.25;;;4.03;;
77160;SDS011;66135;0.000;0.000;2023-02-15T06:31:02;5.00;;;3.38;;
77160;SDS011;66135;0.000;0.000;2023-02-15T06:33:28;4.90;;;3.35;;
77160;SDS011;66135;0.000;0.000;2023-02-15T06:35:55;4.38;;;3.08;;
77160;SDS011;66135;0.000;0.000;2023-02-15T06:38:21;5.60;;;3.03;;
77160;SDS011;66135;0.000;0.000;2023-02-15T06:40:47;5.30;;;3.00;;
77160;SDS011;66135;0.000;0.000;2023-02-15T06:43:12;4.57;;;3.30;;
77160;SDS011;66135;0.000;0.000;2023-02-15T06:45:38;4.30;;;2.97;;
77160;SDS011;66135;0.000;0.000;2023-02-15T06:48:03;5.60;;;3.88;;
77160;SDS011;66135;0.000;0.000;2023-02-15T06:50:31;5.25;;;3.90;;
77160;SDS011;66135;0.000;0.000;2023-02-15T06:52:57;6.72;;;3.63;;
77160;SDS011;66135;0.000;0.000;2023-02-15T06:55:23;5.35;;;3.42;;
77160;SDS011;66135;0.000;0.000;2023-02-15T06:57:49;4.95;;;3.50;;
77160;SDS011;66135;0.000;0.000;2023-02-15T07:00:15;5.93;;;4.10;;
77160;SDS011;66135;0.000;0.000;2023-02-15T07:02:40;6.13;;;3.72;;
77160;SDS011;66135;0.000;0.000;2023-02-15T07:05:06;6.50;;;4.05;;
77160;SDS011;66135;0.000;0.000;2023-02-15T07:07:31;6.20;;;3.85;;
77160;SDS011;66135;0.000;0.000;2023-02-15T07:09:57;6.25;;;3.72;;
77160;SDS011;66135;0.000;0.000;2023-02-15T07:12:22;7.13;;;3.58;;
77160;SDS011;66135;0.000;0.000;2023-02-15T07:15:06;5.65;;;3.80;;
77160;SDS011;66135;0.000;0.000;2023-02-15T07:17:34;5.75;;;3.85;;
77160;SDS011;66135;0.000;0.000;2023-02-15T07:20:00;6.18;;;4.03;;
77160;SDS011;66135;0.000;0.000;2023-02-15T07:22:26;6.05;;;4.47;;
77160;SDS011;66135;0.000;0.000;2023-02-15T07:27:19;5.65;;;3.25;;
77160;SDS011;66135;0.000;0.000;2023-02-15T07:29:45;4.68;;;3.28;;
77160;SDS011;66135;0.000;0.000;2023-02-15T07:32:11;5.55;;;3.55;;
77160;SDS011;66135;0.000;0.000;2023-02-15T07:34:36;5.15;;;3.40;;
77160;SDS011;66135;0.000;0.000;2023-02-15T07:37:02;6.35;;;3.58;;
77160;SDS011;66135;0.000;0.000;2023-02-15T07:39:27;6.90;;;3.65;;
77160;SDS011;66135;0.000;0.000;2023-02-15T07:41:52;6.70;;;4.00;;
77160;SDS011;66135;0.000;0.000;2023-02-15T07:44:18;5.07;;;3.38;;
77160;SDS011;66135;0.000;0.000;2023-02-15T07:46:43;5.72;;;3.13;;
77160;SDS011;66135;0.000;0.000;2023-02-15T07:49:09;5.20;;;3.35;;
77160;SDS011;66135;0.000;0.000;2023-02-15T07:51:34;4.68;;;3.55;;
77160;SDS011;66135;0.000;0.000;2023-02-15T07:53:59;5.88;;;3.55;;
77160;SDS011;66135;0.000;0.000;2023-02-15T07:56:25;6.20;;;3.67;;
77160;SDS011;66135;0.000;0.000;2023-02-15T07:58:50;5.07;;;4.07;;
77160;SDS011;66135;0.000;0.000;2023-02-15T08:01:16;5.80;;;3.10;;
77160;SDS011;66135;0.000;0.000;2023-02-15T08:03:45;5.10;;;4.38;;
77160;SDS011;66135;0.000;0.000;2023-02-15T08:06:11;6.65;;;3.58;;
77160;SDS011;66135;0.000;0.000;2023-02-15T08:08:38;5.53;;;3.80;;
77160;SDS011;66135;0.000;0.000;2023-02-15T08:11:05;4.97;;;3.28;;
77160;SDS011;66135;0.000;0.000;2023-02-15T08:19:14;6.72;;;3.33;;
77160;SDS011;66135;0.000;0.000;2023-02-15T08:21:44;4.28;;;3.10;;
77160;SDS011;66135;0.000;0.000;2023-02-15T08:24:18;4.97;;;3.58;;
77160;SDS011;66135;0.000;0.000;2023-02-15T08:26:45;5.18;;;3.80;;
77160;SDS011;66135;0.000;0.000;2023-02-15T08:29:13;5.45;;;3.72;;
77160;SDS011;66135;0.000;0.000;2023-02-15T08:31:39;6.40;;;3.60;;
77160;SDS011;66135;0.000;0.000;2023-02-15T08:34:06;5.68;;;4.10;;
77160;SDS011;66135;0.000;0.000;2023-02-15T08:36:36;5.50;;;2.97;;
77160;SDS011;66135;0.000;0.000;2023-02-15T08:39:03;7.35;;;3.90;;
77160;SDS011;66135;0.000;0.000;2023-02-15T08:41:30;5.47;;;3.65;;
77160;SDS011;66135;0.000;0.000;2023-02-15T08:43:58;6.20;;;3.53;;
77160;SDS011;66135;0.000;0.000;2023-02-15T08:46:26;5.22;;;3.75;;
77160;SDS011;66135;0.000;0.000;2023-02-15T08:48:53;6.82;;;3.65;;
77160;SDS011;66135;0.000;0.000;2023-02-15T08:51:23;5.60;;;3.70;;
77160;SDS011;66135;0.000;0.000;2023-02-15T08:53:51;6.38;;;4.10;;
77160;SDS011;66135;0.000;0.000;2023-02-15T08:56:18;6.82;;;3.45;;
77160;SDS011;66135;0.000;0.000;2023-02-15T08:58:45;5.72;;;3.63;;
77160;SDS011;66135;0.000;0.000;2023-02-15T09:01:11;6.97;;;3.78;;
77160;SDS011;66135;0.000;0.000;2023-02-15T09:03:38;8.18;;;3.85;;
77160;SDS011;66135;0.000;0.000;2023-02-15T09:06:04;5.88;;;3.85;;
77160;SDS011;66135;0.000;0.000;2023-02-15T09:08:30;6.22;;;4.20;;
77160;SDS011;66135;0.000;0.000;2023-02-15T09:11:15;7.30;;;4.60;;
77160;SDS011;66135;0.000;0.000;2023-02-15T09:13:55;6.00;;;4.22;;
77160;SDS011;66135;0.000;0.000;2023-02-15T09:16:23;9.52;;;4.43;;
77160;SDS011;66135;0.000;0.000;2023-02-15T09:18:50;7.93;;;4.72;;
77160;SDS011;66135;0.000;0.000;2023-02-15T09:21:18;7.13;;;4.00;;
77160;SDS011;66135;0.000;0.000;2023-02-15T09:23:45;8.00;;;5.18;;
77160;SDS011;66135;0.000;0.000;2023-02-15T09:26:13;13.13;;;5.45;;
77160;SDS011;66135;0.000;0.000;2023-02-15T09:28:40;5.80;;;4.00;;
77160;SDS011;66135;0.000;0.000;2023-02-15T09:31:10;6.63;;;4.53;;
77160;SDS011;66135;0.000;0.000;2023-02-15T09:33:38;6.90;;;3.90;;
77160;SDS011;66135;0.000;0.000;2023-02-15T09:36:04;8.23;;;4.38;;
77160;SDS011;66135;0.000;0.000;2023-02-15T09:38:31;6.63;;;4.45;;
77160;SDS011;66135;0.000;0.000;2023-02-15T09:55:28;11.95;;;3.92;;
77160;SDS011;66135;0.000;0.000;2023-02-15T10:00:54;6.00;;;3.97;;
77160;SDS011;66135;0.000;0.000;2023-02-15T10:11:23;7.65;;;4.13;;
77160;SDS011;66135;0.000;0.000;2023-02-15T10:28:30;7.10;;;4.68;;
77160;SDS011;66135;0.000;0.000;2023-02-15T10:33:46;6.82;;;4.05;;
77160;SDS011;66135;0.000;0.000;2023-02-15T10:39:52;6.93;;;4.60;;
77160;SDS011;66135;0.000;0.000;2023-02-15T10:42:11;6.28;;;4.32;;
77160;SDS011;66135;0.000;0.000;2023-02-15T10:50:19;6.05;;;4.38;;
77160;SDS011;66135;0.000;0.000;2023-02-15T10:55:52;5.25;;;3.60;;
77160;SDS011;66135;0.000;0.000;2023-02-15T11:01:22;6.90;;;3.67;;
77160;SDS011;66135;0.000;0.000;2023-02-15T11:06:32;5.55;;;4.03;;
77160;SDS011;66135;0.000;0.000;2023-02-15T11:09:01;5.32;;;3.25;;
77160;SDS011;66135;0.000;0.000;2023-02-15T11:11:34;6.60;;;3.50;;
77160;SDS011;66135;0.000;0.000;2023-02-15T11:16:55;5.63;;;3.72;;
77160;SDS011;66135;0.000;0.000;2023-02-15T11:19:34;4.88;;;3.42;;
77160;SDS011;66135;0.000;0.000;2023-02-15T11:22:04;4.25;;;3.15;;
77160;SDS011;66135;0.000;0.000;2023-02-15T11:24:40;5.22;;;3.80;;
77160;SDS011;66135;0.000;0.000;2023-02-15T11:27:21;5.88;;;3.22;;
77160;SDS011;66135;0.000;0.000;2023-02-15T11:32:40;5.28;;;3.42;;
77160;SDS011;66135;0.000;0.000;2023-02-15T11:40:47;4.60;;;3.35;;
77160;SDS011;66135;0.000;0.000;2023-02-15T11:43:22;4.97;;;3.25;;
77160;SDS011;66135;0.000;0.000;2023-02-15T11:46:11;4.50;;;3.25;;
77160;SDS011;66135;0.000;0.000;2023-02-15T11:48:37;5.90;;;2.75;;
77160;SDS011;66135;0.000;0.000;2023-02-15T11:51:04;5.38;;;3.30;;
77160;SDS011;66135;0.000;0.000;2023-02-15T11:53:34;4.32;;;3.55;;
77160;SDS011;66135;0.000;0.000;2023-02-15T11:58:39;4.97;;;3.22;;
77160;SDS011;66135;0.000;0.000;2023-02-15T12:03:51;5.43;;;3.75;;
77160;SDS011;66135;0.000;0.000;2023-02-15T12:14:53;5.45;;;3.25;;
77160;SDS011;66135;0.000;0.000;2023-02-15T12:17:23;4.38;;;3.35;;
77160;SDS011;66135;0.000;0.000;2023-02-15T12:19:52;4.38;;;3.42;;
77160;SDS011;66135;0.000;0.000;2023-02-15T12:22:22;5.68;;;3.25;;
77160;SDS011;66135;0.000;0.000;2023-02-15T12:24:50;5.75;;;3.83;;
77160;SDS011;66135;0.000;0.000;2023-02-15T12:27:20;3.80;;;3.17;;
77160;SDS011;66135;0.000;0.000;2023-02-15T12:29:49;4.88;;;3.08;;
77160;SDS011;66135;0.000;0.000;2023-02-15T12:32:25;4.28;;;3.13;;
77160;SDS011;66135;0.000;0.000;2023-02-15T12:35:09;5.10;;;3.08;;
77160;SDS011;66135;0.000;0.000;2023-02-15T12:37:39;4.78;;;3.03;;
77160;SDS011;66135;0.000;0.000;2023-02-15T12:40:20;4.95;;;3.30;;
77160;SDS011;66135;0.000;0.000;2023-02-15T12:42:48;3.65;;;2.80;;
77160;SDS011;66135;0.000;0.000;2023-02-15T12:45:21;4.50;;;3.55;;
77160;SDS011;66135;0.000;0.000;2023-02-15T12:53:32;6.63;;;4.53;;
77160;SDS011;66135;0.000;0.000;2023-02-15T12:56:00;8.43;;;4.93;;
77160;SDS011;66135;0.000;0.000;2023-02-15T12:58:28;6.78;;;4.53;;
77160;SDS011;66135;0.000;0.000;2023-02-15T13:01:03;8.82;;;4.47;;
77160;SDS011;66135;0.000;0.000;2023-02-15T13:03:29;6.90;;;4.32;;
77160;SDS011;66135;0.000;0.000;2023-02-15T13:05:55;6.50;;;4.13;;
77160;SDS011;66135;0.000;0.000;2023-02-15T13:08:26;7.20;;;4.85;;
77160;SDS011;66135;0.000;0.000;2023-02-15T13:11:11;6.13;;;3.85;;
77160;SDS011;66135;0.000;0.000;2023-02-15T13:16:38;6.38;;;3.90;;
77160;SDS011;66135;0.000;0.000;2023-02-15T13:19:08;6.47;;;4.07;;
77160;SDS011;66135;0.000;0.000;2023-02-15T13:21:40;5.82;;;3.83;;
77160;SDS011;66135;0.000;0.000;2023-02-15T13:24:20;6.45;;;4.53;;
77160;SDS011;66135;0.000;0.000;2023-02-15T13:26:49;4.93;;;3.40;;
77160;SDS011;66135;0.000;0.000;2023-02-15T13:34:57;6.63;;;4.03;;
77160;SDS011;66135;0.000;0.000;2023-02-15T13:40:02;5.25;;;3.53;;
77160;SDS011;66135;0.000;0.000;2023-02-15T14:09:40;4.88;;;3.38;;
77160;SDS011;66135;0.000;0.000;2023-02-15T14:20:47;6.25;;;3.65;;
77160;SDS011;66135;0.000;0.000;2023-02-15T14:26:02;4.47;;;3.75;;
77160;SDS011;66135;0.000;0.000;2023-02-15T14:31:21;5.35;;;3.15;;
77160;SDS011;66135;0.000;0.000;2023-02-15T14:34:00;5.03;;;3.05;;
77160;SDS011;66135;0.000;0.000;2023-02-15T14:36:25;4.78;;;3.38;;
77160;SDS011;66135;0.000;0.000;2023-02-15T14:44:42;4.47;;;2.95;;
77160;SDS011;66135;0.000;0.000;2023-02-15T14:47:17;4.88;;;3.25;;
77160;SDS011;66135;0.000;0.000;2023-02-15T14:49:47;5.45;;;3.47;;
77160;SDS011;66135;0.000;0.000;2023-02-15T14:52:12;4.72;;;3.28;;
77160;SDS011;66135;0.000;0.000;2023-02-15T15:04:35;4.97;;;3.17;;
77160;SDS011;66135;0.000;0.000;2023-02-15T15:07:20;5.22;;;2.63;;
77160;SDS011;66135;0.000;0.000;2023-02-15T15:09:59;5.38;;;3.17;;
77160;SDS011;66135;0.000;0.000;2023-02-15T15:15:00;4.68;;;3.35;;
77160;SDS011;66135;0.000;0.000;2023-02-15T15:25:42;5.57;;;3.78;;
77160;SDS011;66135;0.000;0.000;2023-02-15T15:30:58;5.10;;;3.60;;
77160;SDS011;66135;0.000;0.000;2023-02-15T15:33:50;6.40;;;4.47;;
77160;SDS011;66135;0.000;0.000;2023-02-15T15:42:13;5.30;;;3.78;;
77160;SDS011;66135;0.000;0.000;2023-02-15T15:47:58;7.55;;;4.22;;
77160;SDS011;66135;0.000;0.000;2023-02-15T15:50:47;6.70;;;4.28;;
77160;SDS011;66135;0.000;0.000;2023-02-15T15:53:22;5.40;;;3.55;;
77160;SDS011;66135;0.000;0.000;2023-02-15T15:55:50;6.28;;;4.78;;
77160;SDS011;66135;0.000;0.000;2023-02-15T15:58:20;6.20;;;4.05;;
77160;SDS011;66135;0.000;0.000;2023-02-15T16:03:22;5.13;;;4.00;;
77160;SDS011;66135;0.000;0.000;2023-02-15T16:05:48;6.00;;;3.25;;
77160;SDS011;66135;0.000;0.000;2023-02-15T16:08:32;5.30;;;3.40;;
77160;SDS011;66135;0.000;0.000;2023-02-15T16:11:16;5.75;;;4.10;;
77160;SDS011;66135;0.000;0.000;2023-02-15T16:13:47;5.90;;;3.70;;
77160;SDS011;66135;0.000;0.000;2023-02-15T16:16:13;5.00;;;3.20;;
77160;SDS011;66135;0.000;0.000;2023-02-15T16:18:44;4.30;;;3.50;;
77160;SDS011;66135;0.000;0.000;2023-02-15T16:21:19;6.50;;;3.50;;
77160;SDS011;66135;0.000;0.000;2023-02-15T16:26:59;5.20;;;3.30;;
77160;SDS011;66135;0.000;0.000;2023-02-15T16:29:40;6.55;;;3.67;;
77160;SDS011;66135;0.000;0.000;2023-02-15T16:32:14;6.60;;;4.18;;
77160;SDS011;66135;0.000;0.000;2023-02-15T16:37:20;6.53;;;4.30;;
77160;SDS011;66135;0.000;0.000;2023-02-15T16:39:48;6.13;;;4.18;;
77160;SDS011;66135;0.000;0.000;2023-02-15T16:42:15;7.20;;;4.05;;
77160;SDS011;66135;0.000;0.000;2023-02-15T16:44:42;6.68;;;3.22;;
77160;SDS011;66135;0.000;0.000;2023-02-15T16:47:16;7.72;;;3.63;;
77160;SDS011;66135;0.000;0.000;2023-02-15T16:49:49;4.43;;;2.95;;
77160;SDS011;66135;0.000;0.000;2023-02-15T16:52:22;6.30;;;3.50;;
77160;SDS011;66135;0.000;0.000;2023-02-15T16:54:50;5.30;;;3.85;;
77160;SDS011;66135;0.000;0.000;2023-02-15T16:57:37;4.60;;;3.53;;
77160;SDS011;66135;0.000;0.000;2023-02-15T17:00:14;5.50;;;3.78;;
77160;SDS011;66135;0.000;0.000;2023-02-15T17:03:19;9.00;;;3.78;;
77160;SDS011;66135;0.000;0.000;2023-02-15T17:05:58;7.80;;;4.63;;
77160;SDS011;66135;0.000;0.000;2023-02-15T17:11:05;6.72;;;3.45;;
77160;SDS011;66135;0.000;0.000;2023-02-15T17:16:44;6.13;;;3.53;;
77160;SDS011;66135;0.000;0.000;2023-02-15T17:19:41;6.53;;;3.40;;
77160;SDS011;66135;0.000;0.000;2023-02-15T17:22:23;4.88;;;3.38;;
77160;SDS011;66135;0.000;0.000;2023-02-15T17:24:57;6.28;;;3.60;;
77160;SDS011;66135;0.000;0.000;2023-02-15T17:27:25;5.32;;;3.38;;
77160;SDS011;66135;0.000;0.000;2023-02-15T17:29:55;6.78;;;3.00;;
77160;SDS011;66135;0.000;0.000;2023-02-15T17:32:23;5.63;;;3.47;;
77160;SDS011;66135;0.000;0.000;2023-02-15T17:34:58;8.50;;;3.20;;
77160;SDS011;66135;0.000;0.000;2023-02-15T17:37:31;6.82;;;3.63;;
77160;SDS011;66135;0.000;0.000;2023-02-15T17:42:51;3.83;;;2.72;;
77160;SDS011;66135;0.000;0.000;2023-02-15T17:45:17;5.60;;;2.88;;
77160;SDS011;66135;0.000;0.000;2023-02-15T17:47:43;6.25;;;2.72;;
77160;SDS011;66135;0.000;0.000;2023-02-15T17:50:15;7.15;;;3.10;;
77160;SDS011;66135;0.000;0.000;2023-02-15T17:52:44;6.85;;;3.45;;
77160;SDS011;66135;0.000;0.000;2023-02-15T17:55:13;7.18;;;3.47;;
77160;SDS011;66135;0.000;0.000;2023-02-15T17:57:59;4.82;;;2.97;;
77160;SDS011;66135;0.000;0.000;2023-02-15T18:00:25;6.18;;;3.55;;
77160;SDS011;66135;0.000;0.000;2023-02-15T18:03:10;5.15;;;3.13;;
77160;SDS011;66135;0.000;0.000;2023-02-15T18:08:40;5.57;;;3.05;;
77160;SDS011;66135;0.000;0.000;2023-02-15T18:11:24;4.10;;;3.17;;
77160;SDS011;66135;0.000;0.000;2023-02-15T18:14:08;7.43;;;2.92;;
77160;SDS011;66135;0.000;0.000;2023-02-15T18:16:36;7.90;;;3.72;;
77160;SDS011;66135;0.000;0.000;2023-02-15T18:21:41;6.93;;;3.22;;
77160;SDS011;66135;0.000;0.000;2023-02-15T18:24:17;4.63;;;3.00;;
77160;SDS011;66135;0.000;0.000;2023-02-15T18:26:44;4.22;;;2.95;;
77160;SDS011;66135;0.000;0.000;2023-02-15T18:31:35;6.75;;;3.35;;
77160;SDS011;66135;0.000;0.000;2023-02-15T18:36:35;5.63;;;3.22;;
77160;SDS011;66135;0.000;0.000;2023-02-15T18:39:18;7.03;;;2.65;;
77160;SDS011;66135;0.000;0.000;2023-02-15T18:41:51;6.50;;;3.15;;
77160;SDS011;66135;0.000;0.000;2023-02-15T18:44:17;5.63;;;2.78;;
77160;SDS011;66135;0.000;0.000;2023-02-15T18:49:08;5.13;;;2.77;;
77160;SDS011;66135;0.000;0.000;2023-02-15T18:51:33;8.45;;;2.97;;
77160;SDS011;66135;0.000;0.000;2023-02-15T18:54:04;7.35;;;2.75;;
77160;SDS011;66135;0.000;0.000;2023-02-15T18:56:37;4.90;;;3.03;;
77160;SDS011;66135;0.000;0.000;2023-02-15T18:59:02;5.30;;;3.50;;
77160;SDS011;66135;0.000;0.000;2023-02-15T19:01:28;5.15;;;2.60;;
77160;SDS011;66135;0.000;0.000;2023-02-15T19:06:19;5.67;;;3.03;;
77160;SDS011;66135;0.000;0.000;2023-02-15T19:08:50;8.65;;;3.03;;
77160;SDS011;66135;0.000;0.000;2023-02-15T19:11:17;8.45;;;3.58;;
77160;SDS011;66135;0.000;0.000;2023-02-15T19:13:47;4.50;;;3.10;;
77160;SDS011;66135;0.000;0.000;2023-02-15T19:18:55;5.53;;;2.85;;
77160;SDS011;66135;0.000;0.000;2023-02-15T19:23:48;4.72;;;2.63;;
77160;SDS011;66135;0.000;0.000;2023-02-15T19:26:18;5.05;;;2.78;;
77160;SDS011;66135;0.000;0.000;2023-02-15T19:28:43;3.58;;;2.63;;
77160;SDS011;66135;0.000;0.000;2023-02-15T19:31:12;5.03;;;3.22;;
77160;SDS011;66135;0.000;0.000;2023-02-15T19:33:38;6.65;;;3.92;;
77160;SDS011;66135;0.000;0.000;2023-02-15T19:36:05;7.30;;;3.80;;
77160;SDS011;66135;0.000;0.000;2023-02-15T19:38:36;7.90;;;4.20;;
77160;SDS011;66135;0.000;0.000;2023-02-15T19:43:30;7.30;;;4.47;;
77160;SDS011;66135;0.000;0.000;2023-02-15T19:45:55;7.68;;;4.32;;
77160;SDS011;66135;0.000;0.000;2023-02-15T19:48:21;7.88;;;4.03;;
77160;SDS011;66135;0.000;0.000;2023-02-15T19:53:21;6.35;;;5.10;;
77160;SDS011;66135;0.000;0.000;2023-02-15T19:55:49;9.93;;;4.85;;
77160;SDS011;66135;0.000;0.000;2023-02-15T19:58:15;7.95;;;5.20;;
77160;SDS011;66135;0.000;0.000;2023-02-15T20:00:43;8.63;;;5.63;;
77160;SDS011;66135;0.000;0.000;2023-02-15T20:03:10;8.20;;;5.10;;